Time,TemperatureF,DewpointF,PressureIn,WindDirection,WindDirectionDegrees,WindSpeedMPH,WindSpeedGustMPH,Humidity,HourlyPrecipIn,Conditions,Clouds,dailyrainin,SoftwareType,DateUTC
2013-08-17 00:01:00,64.6,53.8,30.02,NW,315,4.0,4.0,68,0.00,,,17.31,meteohub,2013-08-17 07:01:00,
2013-08-17 00:06:00,64.6,53.8,30.02,West,270,4.0,5.0,68,0.00,,,0.00,meteohub,2013-08-17 07:06:00,
2013-08-17 00:11:00,64.4,54.0,30.02,NW,315,4.0,6.0,69,0.00,,,0.00,meteohub,2013-08-17 07:11:00,
2013-08-17 00:16:00,64.0,54.1,30.02,North,0,4.0,6.0,70,0.00,,,0.00,meteohub,2013-08-17 07:16:00,
2013-08-17 00:21:00,63.9,54.0,30.02,NW,315,4.0,6.0,70,0.00,,,0.00,meteohub,2013-08-17 07:21:00,
2013-08-17 00:26:00,64.0,54.1,30.02,NW,315,3.0,6.0,70,0.00,,,0.00,meteohub,2013-08-17 07:26:00,
2013-08-17 00:31:00,63.9,54.0,30.02,NW,315,2.0,6.0,70,0.00,,,0.00,meteohub,2013-08-17 07:31:00,
2013-08-17 00:36:00,63.7,54.1,30.02,NW,315,2.0,6.0,71,0.00,,,0.00,meteohub,2013-08-17 07:36:00,
2013-08-17 00:41:00,63.5,54.3,30.02,West,270,4.0,4.0,72,0.00,,,0.00,meteohub,2013-08-17 07:41:00,
2013-08-17 00:46:00,63.7,54.5,30.02,NW,315,4.0,6.0,72,0.00,,,0.00,meteohub,2013-08-17 07:46:00,
2013-08-17 00:51:00,63.7,54.5,30.02,West,270,2.0,6.0,72,0.00,,,0.00,meteohub,2013-08-17 07:51:00,
2013-08-17 00:56:00,63.7,54.5,30.02,NW,315,4.0,6.0,72,0.00,,,0.00,meteohub,2013-08-17 07:56:00,
2013-08-17 01:01:00,63.7,54.5,30.01,West,270,2.0,6.0,72,0.00,,,0.00,meteohub,2013-08-17 08:01:00,
2013-08-17 01:06:00,63.5,54.7,30.02,SW,225,4.0,4.0,73,0.00,,,0.00,meteohub,2013-08-17 08:06:00,
2013-08-17 01:11:00,63.5,54.7,30.02,West,270,3.0,4.0,73,0.00,,,0.00,meteohub,2013-08-17 08:11:00,
2013-08-17 01:16:00,63.5,54.7,30.02,West,270,4.0,4.0,73,0.00,,,0.00,meteohub,2013-08-17 08:16:00,
2013-08-17 01:21:00,63.5,54.7,30.02,West,270,4.0,5.0,73,0.00,,,0.00,meteohub,2013-08-17 08:21:00,
2013-08-17 01:27:00,63.3,54.5,30.02,West,270,4.0,5.0,73,0.00,,,0.00,meteohub,2013-08-17 08:27:00,
2013-08-17 01:32:00,63.1,54.7,30.02,West,270,3.0,5.0,74,0.00,,,0.00,meteohub,2013-08-17 08:32:00,
2013-08-17 01:37:00,63.0,54.5,30.01,West,270,2.0,4.0,74,0.00,,,0.00,meteohub,2013-08-17 08:37:00,
2013-08-17 01:42:00,62.8,54.3,30.01,NW,315,3.0,4.0,74,0.00,,,0.00,meteohub,2013-08-17 08:42:00,
2013-08-17 01:47:00,62.6,54.5,30.01,NW,315,4.0,4.0,75,0.00,,,0.00,meteohub,2013-08-17 08:47:00,
2013-08-17 01:52:00,62.6,54.9,30.02,NW,315,4.0,6.0,76,0.00,,,0.00,meteohub,2013-08-17 08:52:00,
2013-08-17 01:57:00,62.6,54.5,30.01,West,270,5.0,7.0,75,0.00,,,0.00,meteohub,2013-08-17 08:57:00,
2013-08-17 02:02:00,62.8,54.7,30.01,NW,315,8.0,8.0,75,0.00,,,0.00,meteohub,2013-08-17 09:02:00,
2013-08-17 02:07:00,62.8,54.7,30.01,NW,315,4.0,8.0,75,0.00,,,0.00,meteohub,2013-08-17 09:07:00,
2013-08-17 02:12:00,62.6,54.5,30.01,NW,315,4.0,8.0,75,0.00,,,0.00,meteohub,2013-08-17 09:12:00,
2013-08-17 02:17:00,62.4,54.3,30.02,NE,45,3.0,8.0,75,0.00,,,0.00,meteohub,2013-08-17 09:17:00,
2013-08-17 02:22:00,61.3,54.5,30.02,NE,45,3.0,6.0,78,0.00,,,0.00,meteohub,2013-08-17 09:22:00,
2013-08-17 02:27:00,61.0,54.5,30.02,West,270,2.0,6.0,79,0.00,,,0.00,meteohub,2013-08-17 09:27:00,
2013-08-17 02:32:00,60.6,54.1,30.02,North,0,2.0,6.0,79,0.00,,,0.00,meteohub,2013-08-17 09:32:00,
2013-08-17 02:37:00,60.6,54.5,30.02,South,180,2.0,6.0,80,0.00,,,0.00,meteohub,2013-08-17 09:37:00,
2013-08-17 02:42:00,61.0,54.7,30.02,East,90,4.0,4.0,80,0.00,,,0.00,meteohub,2013-08-17 09:42:00,
2013-08-17 02:47:00,61.5,55.2,30.02,NNE,23,0.0,4.0,80,0.00,,,0.00,meteohub,2013-08-17 09:47:00,
2013-08-17 02:52:00,61.5,54.9,30.02,West,270,3.0,4.0,79,0.00,,,0.00,meteohub,2013-08-17 09:52:00,
2013-08-17 02:57:00,61.5,54.9,30.02,West,270,4.0,5.0,79,0.00,,,0.00,meteohub,2013-08-17 09:57:00,
2013-08-17 03:02:00,61.9,55.2,30.02,North,0,4.0,5.0,79,0.00,,,0.00,meteohub,2013-08-17 10:02:00,
2013-08-17 03:07:00,61.9,54.9,30.02,West,270,4.0,5.0,78,0.00,,,0.00,meteohub,2013-08-17 10:07:00,
2013-08-17 03:12:00,61.7,55.0,30.02,NW,315,3.0,5.0,79,0.00,,,0.00,meteohub,2013-08-17 10:12:00,
2013-08-17 03:17:00,61.7,55.0,30.02,West,270,3.0,5.0,79,0.00,,,0.00,meteohub,2013-08-17 10:17:00,
2013-08-17 03:22:00,61.5,54.9,30.02,West,270,3.0,4.0,79,0.00,,,0.00,meteohub,2013-08-17 10:22:00,
2013-08-17 03:27:00,61.2,54.9,30.03,West,270,4.0,4.0,80,0.00,,,0.00,meteohub,2013-08-17 10:27:00,
2013-08-17 03:32:00,61.2,55.2,30.02,West,270,3.0,5.0,81,0.00,,,0.00,meteohub,2013-08-17 10:32:00,
2013-08-17 03:37:00,61.2,55.6,30.03,West,270,4.0,5.0,82,0.00,,,0.00,meteohub,2013-08-17 10:37:00,
2013-08-17 03:42:00,61.2,55.6,30.02,West,270,4.0,5.0,82,0.00,,,0.00,meteohub,2013-08-17 10:42:00,
2013-08-17 03:47:00,61.3,55.4,30.02,West,270,2.0,4.0,81,0.00,,,0.00,meteohub,2013-08-17 10:47:00,
2013-08-17 03:52:00,61.2,55.6,30.02,West,270,4.0,4.0,82,0.00,,,0.00,meteohub,2013-08-17 10:52:00,
2013-08-17 03:57:00,61.0,55.4,30.03,West,270,4.0,4.0,82,0.00,,,0.00,meteohub,2013-08-17 10:57:00,
2013-08-17 04:02:00,60.8,55.6,30.03,SW,225,1.0,4.0,83,0.00,,,0.00,meteohub,2013-08-17 11:02:00,
2013-08-17 04:07:00,60.4,54.9,30.04,East,90,0.0,4.0,82,0.00,,,0.00,meteohub,2013-08-17 11:07:00,
2013-08-17 04:12:00,60.3,55.4,30.03,East,90,2.0,4.0,84,0.00,,,0.00,meteohub,2013-08-17 11:12:00,
2013-08-17 04:17:00,60.1,55.2,30.03,East,90,1.0,2.0,84,0.00,,,0.00,meteohub,2013-08-17 11:17:00,
2013-08-17 04:22:00,60.1,55.2,30.03,East,90,1.0,2.0,84,0.00,,,0.00,meteohub,2013-08-17 11:22:00,
2013-08-17 04:27:00,59.7,55.2,30.03,West,270,3.0,3.0,85,0.00,,,0.00,meteohub,2013-08-17 11:27:00,
2013-08-17 04:32:00,59.4,55.4,30.03,West,270,3.0,4.0,87,0.00,,,0.00,meteohub,2013-08-17 11:32:00,
2013-08-17 04:37:00,59.2,55.4,30.03,NW,315,4.0,4.0,87,0.00,,,0.00,meteohub,2013-08-17 11:37:00,
2013-08-17 04:42:00,59.0,55.2,30.03,NW,315,2.0,4.0,87,0.00,,,0.00,meteohub,2013-08-17 11:42:00,
2013-08-17 04:47:00,58.6,54.9,30.03,North,-999,-999.0,4.0,87,0.00,,,0.00,meteohub,2013-08-17 11:47:00,
2013-08-17 04:52:00,58.6,55.4,30.03,NW,315,4.0,4.0,89,0.00,,,0.00,meteohub,2013-08-17 11:52:00,
2013-08-17 04:57:00,58.3,55.4,30.03,West,270,4.0,4.0,90,0.00,,,0.00,meteohub,2013-08-17 11:57:00,
2013-08-17 05:02:00,58.3,55.6,30.03,West,270,4.0,4.0,91,0.00,,,0.00,meteohub,2013-08-17 12:02:00,
2013-08-17 05:06:00,58.1,55.4,30.03,West,270,3.0,4.0,91,0.00,,,0.00,meteohub,2013-08-17 12:06:00,
2013-08-17 05:11:00,58.1,55.8,30.03,NW,315,2.0,4.0,92,0.00,,,0.00,meteohub,2013-08-17 12:11:00,
2013-08-17 05:16:00,57.9,55.6,30.03,NW,315,3.0,4.0,92,0.00,,,0.00,meteohub,2013-08-17 12:16:00,
2013-08-17 05:21:00,57.9,55.6,30.03,West,270,4.0,4.0,92,0.00,,,0.00,meteohub,2013-08-17 12:21:00,
2013-08-17 05:26:00,57.7,55.8,30.03,NW,315,4.0,4.0,93,0.00,,,0.00,meteohub,2013-08-17 12:26:00,
2013-08-17 05:31:00,57.6,55.8,30.03,NW,315,2.0,4.0,94,0.00,,,0.00,meteohub,2013-08-17 12:31:00,
2013-08-17 05:36:00,57.6,55.8,30.04,NW,315,2.0,4.0,94,0.00,,,0.00,meteohub,2013-08-17 12:36:00,
2013-08-17 05:41:00,57.6,56.1,30.04,NW,315,2.0,4.0,95,0.00,,,0.00,meteohub,2013-08-17 12:41:00,
2013-08-17 05:46:00,57.6,55.8,30.04,North,0,2.0,3.0,94,0.00,,,0.00,meteohub,2013-08-17 12:46:00,
2013-08-17 05:51:00,57.0,55.2,30.04,NW,315,2.0,3.0,94,0.00,,,0.00,meteohub,2013-08-17 12:51:00,
2013-08-17 05:56:00,56.7,55.2,30.04,NW,315,3.0,3.0,95,0.00,,,0.00,meteohub,2013-08-17 12:56:00,
2013-08-17 06:01:00,56.7,55.6,30.04,West,270,3.0,4.0,96,0.00,,,0.00,meteohub,2013-08-17 13:01:00,
2013-08-17 06:06:00,57.0,56.1,30.04,NW,315,4.0,4.0,97,0.00,,,0.00,meteohub,2013-08-17 13:06:00,
2013-08-17 06:11:00,57.0,56.1,30.04,West,270,4.0,4.0,97,0.00,,,0.00,meteohub,2013-08-17 13:11:00,
2013-08-17 06:16:00,57.0,55.9,30.04,West,270,2.0,5.0,96,0.00,,,0.00,meteohub,2013-08-17 13:16:00,
2013-08-17 06:21:00,57.2,56.3,30.04,NW,315,4.0,5.0,97,0.00,,,0.00,meteohub,2013-08-17 13:21:00,
2013-08-17 06:26:00,57.2,56.1,30.04,West,270,4.0,4.0,96,0.00,,,0.00,meteohub,2013-08-17 13:26:00,
2013-08-17 06:31:00,57.2,56.1,30.05,East,90,2.0,4.0,96,0.00,,,0.00,meteohub,2013-08-17 13:31:00,
2013-08-17 06:36:00,56.7,55.2,30.05,North,0,2.0,4.0,95,0.00,,,0.00,meteohub,2013-08-17 13:36:00,
2013-08-17 06:41:00,57.4,55.6,30.05,North,0,2.0,4.0,94,0.00,,,0.00,meteohub,2013-08-17 13:41:00,
2013-08-17 06:46:00,57.9,55.2,30.05,North,0,2.0,2.0,91,0.00,,,0.00,meteohub,2013-08-17 13:46:00,
2013-08-17 06:51:00,58.6,55.9,30.05,NW,315,2.0,2.0,91,0.00,,,0.00,meteohub,2013-08-17 13:51:00,
2013-08-17 06:56:00,59.5,56.3,30.05,West,270,2.0,2.0,89,0.00,,,0.00,meteohub,2013-08-17 13:56:00,
2013-08-17 07:01:00,59.7,55.8,30.06,NW,315,2.0,4.0,87,0.00,,,0.00,meteohub,2013-08-17 14:01:00,
2013-08-17 07:06:00,61.0,57.0,30.05,NW,315,2.0,4.0,87,0.00,,,0.00,meteohub,2013-08-17 14:06:00,
2013-08-17 07:11:00,62.2,57.0,30.06,NW,315,2.0,4.0,83,0.00,,,0.00,meteohub,2013-08-17 14:11:00,
2013-08-17 07:16:00,62.8,56.8,30.06,NW,315,2.0,2.0,81,0.00,,,0.00,meteohub,2013-08-17 14:16:00,
2013-08-17 07:21:00,63.0,56.7,30.06,West,270,3.0,3.0,80,0.00,,,0.00,meteohub,2013-08-17 14:21:00,
2013-08-17 07:26:00,63.0,56.7,30.06,West,270,2.0,3.0,80,0.00,,,0.00,meteohub,2013-08-17 14:26:00,
2013-08-17 07:31:00,64.4,57.7,30.06,West,270,1.0,3.0,79,0.00,,,0.00,meteohub,2013-08-17 14:31:00,
2013-08-17 07:36:00,65.5,57.4,30.06,West,270,3.0,3.0,75,0.00,,,0.00,meteohub,2013-08-17 14:36:00,
2013-08-17 07:41:00,65.7,56.8,30.06,West,270,2.0,3.0,73,0.00,,,0.00,meteohub,2013-08-17 14:41:00,
2013-08-17 07:46:00,65.8,56.5,30.06,West,270,3.0,3.0,72,0.00,,,0.00,meteohub,2013-08-17 14:46:00,
2013-08-17 07:51:00,66.0,57.2,30.06,NW,315,2.0,4.0,73,0.00,,,0.00,meteohub,2013-08-17 14:51:00,
2013-08-17 07:57:00,66.0,56.7,30.06,West,270,4.0,4.0,72,0.00,,,0.00,meteohub,2013-08-17 14:57:00,
2013-08-17 08:01:00,66.0,56.7,30.06,West,270,4.0,4.0,72,0.00,,,0.00,meteohub,2013-08-17 15:01:00,
2013-08-17 08:07:00,66.0,56.7,30.06,West,270,5.0,5.0,72,0.00,,,0.00,meteohub,2013-08-17 15:07:00,
2013-08-17 08:12:00,66.4,57.0,30.06,West,270,4.0,5.0,72,0.00,,,0.00,meteohub,2013-08-17 15:12:00,
2013-08-17 08:17:00,67.8,57.7,30.06,NW,315,3.0,5.0,70,0.00,,,0.00,meteohub,2013-08-17 15:17:00,
2013-08-17 08:22:00,68.0,57.0,30.06,North,0,5.0,6.0,68,0.00,,,0.00,meteohub,2013-08-17 15:22:00,
2013-08-17 08:27:00,67.6,57.0,30.06,North,0,7.0,7.0,69,0.00,,,0.00,meteohub,2013-08-17 15:27:00,
2013-08-17 08:32:00,68.0,57.0,30.06,NW,315,6.0,7.0,68,0.00,,,0.00,meteohub,2013-08-17 15:32:00,
2013-08-17 08:37:00,68.2,57.2,30.06,NW,315,4.0,7.0,68,0.00,,,0.00,meteohub,2013-08-17 15:37:00,
2013-08-17 08:41:00,68.5,57.2,30.06,NW,315,5.0,7.0,67,0.00,,,0.00,meteohub,2013-08-17 15:41:00,
2013-08-17 08:46:00,68.7,56.8,30.06,North,0,4.0,6.0,66,0.00,,,0.00,meteohub,2013-08-17 15:46:00,
2013-08-17 08:52:00,69.4,57.2,30.06,NW,315,5.0,6.0,65,0.00,,,0.00,meteohub,2013-08-17 15:52:00,
2013-08-17 08:57:00,70.0,57.2,30.06,NW,315,6.0,6.0,64,0.00,,,0.00,meteohub,2013-08-17 15:57:00,
2013-08-17 09:02:00,70.7,57.9,30.06,West,270,4.0,6.0,64,0.00,,,0.00,meteohub,2013-08-17 16:02:00,
2013-08-17 09:07:00,70.7,57.0,30.06,West,270,4.0,6.0,62,0.00,,,0.00,meteohub,2013-08-17 16:07:00,
2013-08-17 09:12:00,72.1,57.6,30.06,SE,135,3.0,6.0,60,0.00,,,0.00,meteohub,2013-08-17 16:12:00,
2013-08-17 09:17:00,72.5,57.7,30.06,West,270,3.0,5.0,60,0.00,,,0.00,meteohub,2013-08-17 16:17:00,
2013-08-17 09:22:00,72.7,57.9,30.06,West,270,4.0,5.0,60,0.00,,,0.00,meteohub,2013-08-17 16:22:00,
2013-08-17 09:27:00,72.7,57.9,30.06,West,270,4.0,4.0,60,0.00,,,0.00,meteohub,2013-08-17 16:27:00,
2013-08-17 09:32:00,72.9,57.7,30.06,North,0,2.0,4.0,59,0.00,,,0.00,meteohub,2013-08-17 16:32:00,
2013-08-17 09:36:00,73.8,57.0,30.06,NW,315,4.0,4.0,56,0.00,,,0.00,meteohub,2013-08-17 16:36:00,
2013-08-17 09:42:00,73.8,57.0,30.06,NW,315,2.0,4.0,56,0.00,,,0.00,meteohub,2013-08-17 16:42:00,
2013-08-17 09:47:00,77.4,58.8,30.06,NE,45,1.0,4.0,53,0.00,,,0.00,meteohub,2013-08-17 16:47:00,
2013-08-17 09:52:00,77.5,57.4,30.06,West,270,2.0,4.0,50,0.00,,,0.00,meteohub,2013-08-17 16:52:00,
2013-08-17 09:57:00,76.8,57.9,30.06,West,270,2.0,3.0,52,0.00,,,0.00,meteohub,2013-08-17 16:57:00,
2013-08-17 10:02:00,75.6,57.7,30.06,SE,135,3.0,3.0,54,0.00,,,0.00,meteohub,2013-08-17 17:02:00,
2013-08-17 10:06:00,75.6,57.7,30.07,SE,135,3.0,3.0,54,0.00,,,0.00,meteohub,2013-08-17 17:06:00,
2013-08-17 10:12:00,72.9,57.2,30.07,SE,135,8.0,8.0,58,0.00,,,0.00,meteohub,2013-08-17 17:12:00,
2013-08-17 10:17:00,72.3,57.2,30.07,East,90,8.0,11.0,59,0.00,,,0.00,meteohub,2013-08-17 17:17:00,
2013-08-17 10:22:00,73.2,58.1,30.07,SE,135,6.0,11.0,59,0.00,,,0.00,meteohub,2013-08-17 17:22:00,
2013-08-17 10:26:00,75.4,59.0,30.06,SW,225,2.0,10.0,57,0.00,,,0.00,meteohub,2013-08-17 17:26:00,
2013-08-17 10:31:00,76.3,57.9,30.06,ENE,68,13.0,13.0,53,0.00,,,0.00,meteohub,2013-08-17 17:31:00,
2013-08-17 10:36:00,74.7,57.4,30.07,East,90,11.0,13.0,55,0.00,,,0.00,meteohub,2013-08-17 17:36:00,
2013-08-17 10:42:00,74.1,57.4,30.06,North,0,6.0,13.0,56,0.00,,,0.00,meteohub,2013-08-17 17:42:00,
2013-08-17 10:46:00,74.5,57.2,30.06,South,180,6.0,13.0,55,0.00,,,0.00,meteohub,2013-08-17 17:46:00,
2013-08-17 10:51:00,75.2,57.9,30.06,NE,45,6.0,11.0,55,0.00,,,0.00,meteohub,2013-08-17 17:51:00,
2013-08-17 10:57:00,74.3,57.0,30.06,East,90,6.0,9.0,55,0.00,,,0.00,meteohub,2013-08-17 17:57:00,
2013-08-17 11:02:00,76.1,57.7,30.06,South,180,4.0,9.0,53,0.00,,,0.00,meteohub,2013-08-17 18:02:00,
2013-08-17 11:07:00,76.6,58.3,30.06,East,90,6.0,9.0,53,0.00,,,0.00,meteohub,2013-08-17 18:07:00,
2013-08-17 11:12:00,75.2,57.4,30.07,East,90,10.0,10.0,54,0.00,,,0.00,meteohub,2013-08-17 18:12:00,
2013-08-17 11:17:00,74.3,57.6,30.06,East,90,9.0,17.0,56,0.00,,,0.00,meteohub,2013-08-17 18:17:00,
2013-08-17 11:22:00,74.8,58.1,30.06,NE,45,2.0,17.0,56,0.00,,,0.00,meteohub,2013-08-17 18:22:00,
2013-08-17 11:27:00,75.7,57.9,30.06,East,90,8.0,11.0,54,0.00,,,0.00,meteohub,2013-08-17 18:27:00,
2013-08-17 11:32:00,75.2,57.9,30.06,NE,45,9.0,10.0,55,0.00,,,0.00,meteohub,2013-08-17 18:32:00,
2013-08-17 11:37:00,76.3,58.5,30.05,South,180,3.0,10.0,54,0.00,,,0.00,meteohub,2013-08-17 18:37:00,
2013-08-17 11:42:00,76.5,58.1,30.05,NE,45,10.0,10.0,53,0.00,,,0.00,meteohub,2013-08-17 18:42:00,
2013-08-17 11:47:00,75.9,57.6,30.05,NE,45,8.0,11.0,53,0.00,,,0.00,meteohub,2013-08-17 18:47:00,
2013-08-17 11:52:00,76.3,57.9,30.05,East,90,6.0,11.0,53,0.00,,,0.00,meteohub,2013-08-17 18:52:00,
2013-08-17 11:57:00,76.6,57.7,30.05,SE,135,5.0,11.0,52,0.00,,,0.00,meteohub,2013-08-17 18:57:00,
2013-08-17 12:02:00,77.9,57.7,30.05,SE,135,4.0,10.0,50,0.00,,,0.00,meteohub,2013-08-17 19:02:00,
2013-08-17 12:07:00,77.9,56.7,30.05,North,0,3.0,9.0,48,0.00,,,0.00,meteohub,2013-08-17 19:07:00,
2013-08-17 12:12:00,77.9,57.2,30.05,SE,135,5.0,7.0,49,0.00,,,0.00,meteohub,2013-08-17 19:12:00,
2013-08-17 12:17:00,77.4,56.7,30.05,East,90,9.0,11.0,49,0.00,,,0.00,meteohub,2013-08-17 19:17:00,
2013-08-17 12:22:00,77.0,56.3,30.05,SE,135,4.0,11.0,49,0.00,,,0.00,meteohub,2013-08-17 19:22:00,
2013-08-17 12:27:00,77.7,55.9,30.04,SW,225,2.0,11.0,47,0.00,,,0.00,meteohub,2013-08-17 19:27:00,
2013-08-17 12:32:00,78.4,55.9,30.04,NE,45,2.0,10.0,46,0.00,,,0.00,meteohub,2013-08-17 19:32:00,
2013-08-17 12:37:00,78.3,56.3,30.04,West,270,2.0,7.0,47,0.00,,,0.00,meteohub,2013-08-17 19:37:00,
2013-08-17 12:42:00,78.3,56.3,30.03,East,90,11.0,11.0,47,0.00,,,0.00,meteohub,2013-08-17 19:42:00,
2013-08-17 12:47:00,78.4,56.5,30.04,NW,315,5.0,12.0,47,0.00,,,0.00,meteohub,2013-08-17 19:47:00,
2013-08-17 12:52:00,79.3,56.1,30.03,East,90,11.0,12.0,45,0.00,,,0.00,meteohub,2013-08-17 19:52:00,
2013-08-17 12:57:00,79.0,56.5,30.03,South,180,3.0,12.0,46,0.00,,,0.00,meteohub,2013-08-17 19:57:00,
2013-08-17 13:02:00,80.2,56.3,30.03,South,180,6.0,11.0,44,0.00,,,0.00,meteohub,2013-08-17 20:02:00,
2013-08-17 13:07:00,80.2,56.3,30.03,North,0,6.0,11.0,44,0.00,,,0.00,meteohub,2013-08-17 20:07:00,
2013-08-17 13:12:00,81.3,56.7,30.03,SE,135,11.0,11.0,43,0.00,,,0.00,meteohub,2013-08-17 20:12:00,
2013-08-17 13:17:00,79.9,55.9,30.02,East,90,8.0,11.0,44,0.00,,,0.00,meteohub,2013-08-17 20:17:00,
2013-08-17 13:22:00,80.2,57.0,30.02,SE,135,11.0,11.0,45,0.00,,,0.00,meteohub,2013-08-17 20:22:00,
2013-08-17 13:27:00,80.2,57.0,30.02,SE,135,7.0,11.0,45,0.00,,,0.00,meteohub,2013-08-17 20:27:00,
2013-08-17 13:32:00,80.1,57.4,30.03,East,90,13.0,13.0,46,0.00,,,0.00,meteohub,2013-08-17 20:32:00,
2013-08-17 13:37:00,80.2,57.0,30.02,NE,45,8.0,15.0,45,0.00,,,0.00,meteohub,2013-08-17 20:37:00,
2013-08-17 13:42:00,80.4,57.7,30.02,SE,135,8.0,15.0,46,0.00,,,0.00,meteohub,2013-08-17 20:42:00,
2013-08-17 13:47:00,80.2,58.1,30.02,East,90,8.0,13.0,47,0.00,,,0.00,meteohub,2013-08-17 20:47:00,
2013-08-17 13:52:00,80.4,57.2,30.02,SE,135,11.0,16.0,45,0.00,,,0.00,meteohub,2013-08-17 20:52:00,
2013-08-17 13:57:00,80.6,57.4,30.02,SE,135,9.0,16.0,45,0.00,,,0.00,meteohub,2013-08-17 20:57:00,
2013-08-17 14:02:00,80.4,58.3,30.02,East,90,8.0,12.0,47,0.00,,,0.00,meteohub,2013-08-17 21:02:00,
2013-08-17 14:07:00,80.8,58.1,30.02,South,180,3.0,11.0,46,0.00,,,0.00,meteohub,2013-08-17 21:07:00,
2013-08-17 14:12:00,81.7,58.3,30.02,East,90,8.0,11.0,45,0.00,,,0.00,meteohub,2013-08-17 21:12:00,
2013-08-17 14:17:00,81.1,57.7,30.01,East,90,15.0,15.0,45,0.00,,,0.00,meteohub,2013-08-17 21:17:00,
2013-08-17 14:22:00,81.1,58.5,30.01,East,90,2.0,15.0,46,0.00,,,0.00,meteohub,2013-08-17 21:22:00,
2013-08-17 14:27:00,81.5,58.6,30.01,SE,135,10.0,15.0,46,0.00,,,0.00,meteohub,2013-08-17 21:27:00,
2013-08-17 14:32:00,81.5,58.1,30.00,East,90,10.0,15.0,45,0.00,,,0.00,meteohub,2013-08-17 21:32:00,
2013-08-17 14:37:00,82.6,59.0,30.00,East,90,2.0,12.0,45,0.00,,,0.00,meteohub,2013-08-17 21:37:00,
2013-08-17 14:42:00,83.1,59.0,30.00,East,90,14.0,14.0,44,0.00,,,0.00,meteohub,2013-08-17 21:42:00,
2013-08-17 14:47:00,82.0,58.6,30.00,SE,135,9.0,15.0,45,0.00,,,0.00,meteohub,2013-08-17 21:47:00,
2013-08-17 14:52:00,82.2,59.4,30.00,ENE,68,9.0,15.0,46,0.00,,,0.00,meteohub,2013-08-17 21:52:00,
2013-08-17 14:57:00,83.1,59.0,29.99,East,90,2.0,15.0,44,0.00,,,0.00,meteohub,2013-08-17 21:57:00,
2013-08-17 15:02:00,83.7,60.1,29.99,South,180,9.0,12.0,45,0.00,,,0.00,meteohub,2013-08-17 22:02:00,
2013-08-17 15:07:00,83.5,60.4,29.99,SE,135,10.0,11.0,46,0.00,,,0.00,meteohub,2013-08-17 22:07:00,
2013-08-17 15:12:00,83.3,60.4,29.99,East,90,13.0,13.0,46,0.00,,,0.00,meteohub,2013-08-17 22:12:00,
2013-08-17 15:17:00,83.3,59.7,29.99,NE,45,13.0,13.0,45,0.00,,,0.00,meteohub,2013-08-17 22:17:00,
2013-08-17 15:22:00,83.3,60.4,29.99,SE,135,13.0,13.0,46,0.00,,,0.00,meteohub,2013-08-17 22:22:00,
2013-08-17 15:28:00,83.3,60.4,29.99,ENE,68,16.0,16.0,46,0.00,,,0.00,meteohub,2013-08-17 22:28:00,
2013-08-17 15:33:00,83.8,60.8,29.99,South,180,10.0,16.0,46,0.00,,,0.00,meteohub,2013-08-17 22:33:00,
2013-08-17 15:38:00,83.3,61.0,29.99,SSE,158,8.0,16.0,47,0.00,,,0.00,meteohub,2013-08-17 22:38:00,
2013-08-17 15:43:00,82.2,60.6,29.98,East,90,9.0,16.0,48,0.00,,,0.00,meteohub,2013-08-17 22:43:00,
2013-08-17 15:48:00,81.7,60.1,29.99,East,90,11.0,12.0,48,0.00,,,0.00,meteohub,2013-08-17 22:48:00,
2013-08-17 15:53:00,81.9,60.8,29.99,ENE,68,8.0,12.0,49,0.00,,,0.00,meteohub,2013-08-17 22:53:00,
2013-08-17 15:58:00,82.9,61.2,29.99,East,90,11.0,11.0,48,0.00,,,0.00,meteohub,2013-08-17 22:58:00,
2013-08-17 16:03:00,83.1,60.8,29.99,NE,45,15.0,15.0,47,0.00,,,0.00,meteohub,2013-08-17 23:03:00,
2013-08-17 16:08:00,83.3,61.0,29.98,NE,45,14.0,15.0,47,0.00,,,0.00,meteohub,2013-08-17 23:08:00,
2013-08-17 16:13:00,83.7,60.6,29.98,NE,45,10.0,15.0,46,0.00,,,0.00,meteohub,2013-08-17 23:13:00,
2013-08-17 16:18:00,83.8,61.5,29.98,SE,135,10.0,16.0,47,0.00,,,0.00,meteohub,2013-08-17 23:18:00,
2013-08-17 16:23:00,84.9,60.6,29.98,SE,135,11.0,16.0,44,0.00,,,0.00,meteohub,2013-08-17 23:23:00,
2013-08-17 16:28:00,84.9,59.2,29.98,SE,135,14.0,16.0,42,0.00,,,0.00,meteohub,2013-08-17 23:28:00,
2013-08-17 16:33:00,84.4,60.1,29.98,SE,135,11.0,13.0,44,0.00,,,0.00,meteohub,2013-08-17 23:33:00,
2013-08-17 16:38:00,84.7,57.7,29.98,SE,135,11.0,14.0,40,0.00,,,0.00,meteohub,2013-08-17 23:38:00,
2013-08-17 16:43:00,84.6,56.8,29.98,NE,45,11.0,14.0,39,0.00,,,0.00,meteohub,2013-08-17 23:43:00,
2013-08-17 16:48:00,84.9,57.2,29.98,East,90,11.0,12.0,39,0.00,,,0.00,meteohub,2013-08-17 23:48:00,
2013-08-17 16:53:00,84.6,56.8,29.98,SE,135,13.0,13.0,39,0.00,,,0.00,meteohub,2013-08-17 23:53:00,
2013-08-17 16:58:00,84.6,56.8,29.98,East,90,11.0,15.0,39,0.00,,,0.00,meteohub,2013-08-17 23:58:00,
2013-08-17 17:03:00,85.3,57.6,29.98,East,90,14.0,15.0,39,0.00,,,0.00,meteohub,2013-08-18 00:03:00,
2013-08-17 17:08:00,84.4,56.7,29.98,East,90,12.0,15.0,39,0.00,,,0.00,meteohub,2013-08-18 00:08:00,
2013-08-17 17:13:00,84.7,57.0,29.98,NE,45,12.0,17.0,39,0.00,,,0.00,meteohub,2013-08-18 00:13:00,
2013-08-17 17:18:00,84.6,57.6,29.98,NE,45,13.0,17.0,40,0.00,,,0.00,meteohub,2013-08-18 00:18:00,
2013-08-17 17:23:00,84.9,57.2,29.98,East,90,15.0,17.0,39,0.00,,,0.00,meteohub,2013-08-18 00:23:00,
2013-08-17 17:28:00,84.6,57.6,29.98,East,90,20.0,20.0,40,0.00,,,0.00,meteohub,2013-08-18 00:28:00,
2013-08-17 17:33:00,84.6,57.6,29.98,East,90,12.0,20.0,40,0.00,,,0.00,meteohub,2013-08-18 00:33:00,
2013-08-17 17:38:00,84.4,58.1,29.98,East,90,11.0,20.0,41,0.00,,,0.00,meteohub,2013-08-18 00:38:00,
2013-08-17 17:43:00,84.4,58.1,29.98,East,90,14.0,20.0,41,0.00,,,0.00,meteohub,2013-08-18 00:43:00,
2013-08-17 17:48:00,84.6,57.6,29.98,SE,135,14.0,17.0,40,0.00,,,0.00,meteohub,2013-08-18 00:48:00,
2013-08-17 17:53:00,84.0,57.7,29.98,ESE,113,9.0,20.0,41,0.00,,,0.00,meteohub,2013-08-18 00:53:00,
2013-08-17 17:58:00,83.8,57.6,29.98,SE,135,12.0,20.0,41,0.00,,,0.00,meteohub,2013-08-18 00:58:00,
2013-08-17 18:03:00,83.7,58.1,29.98,ESE,113,15.0,20.0,42,0.00,,,0.00,meteohub,2013-08-18 01:03:00,
2013-08-17 18:08:00,83.5,57.9,29.99,East,90,13.0,17.0,42,0.00,,,0.00,meteohub,2013-08-18 01:08:00,
2013-08-17 18:13:00,83.7,57.4,29.98,East,90,11.0,17.0,41,0.00,,,0.00,meteohub,2013-08-18 01:13:00,
2013-08-17 18:18:00,82.6,57.2,29.98,NE,45,18.0,18.0,42,0.00,,,0.00,meteohub,2013-08-18 01:18:00,
2013-08-17 18:23:00,82.0,56.7,29.98,East,90,19.0,19.0,42,0.00,,,0.00,meteohub,2013-08-18 01:23:00,
2013-08-17 18:28:00,81.7,57.0,29.98,NE,45,19.0,21.0,43,0.00,,,0.00,meteohub,2013-08-18 01:28:00,
2013-08-17 18:33:00,81.5,57.6,29.98,NE,45,17.0,21.0,44,0.00,,,0.00,meteohub,2013-08-18 01:33:00,
2013-08-17 18:38:00,81.0,60.1,29.98,NE,45,18.0,21.0,49,0.00,,,0.00,meteohub,2013-08-18 01:38:00,
2013-08-17 18:43:00,80.2,59.9,29.98,East,90,17.0,19.0,50,0.00,,,0.00,meteohub,2013-08-18 01:43:00,
2013-08-17 18:48:00,79.7,59.9,29.98,NE,45,15.0,21.0,51,0.00,,,0.00,meteohub,2013-08-18 01:48:00,
2013-08-17 18:53:00,79.5,60.4,29.98,NE,45,16.0,21.0,52,0.00,,,0.00,meteohub,2013-08-18 01:53:00,
2013-08-17 18:58:00,79.5,60.4,29.98,NE,45,13.0,18.0,52,0.00,,,0.00,meteohub,2013-08-18 01:58:00,
2013-08-17 19:03:00,79.0,60.4,29.98,NE,45,15.0,18.0,53,0.00,,,0.00,meteohub,2013-08-18 02:03:00,
2013-08-17 19:08:00,78.1,60.1,29.98,NE,45,16.0,16.0,54,0.00,,,0.00,meteohub,2013-08-18 02:08:00,
2013-08-17 19:13:00,77.7,59.2,29.99,NE,45,17.0,17.0,53,0.00,,,0.00,meteohub,2013-08-18 02:13:00,
2013-08-17 19:18:00,77.2,59.2,29.99,NE,45,15.0,16.0,54,0.00,,,0.00,meteohub,2013-08-18 02:18:00,
2013-08-17 19:23:00,77.0,59.0,29.99,NE,45,14.0,17.0,54,0.00,,,0.00,meteohub,2013-08-18 02:23:00,
2013-08-17 19:28:00,76.3,59.4,29.99,NE,45,13.0,17.0,56,0.00,,,0.00,meteohub,2013-08-18 02:28:00,
2013-08-17 19:33:00,75.7,59.4,29.99,East,90,15.0,17.0,57,0.00,,,0.00,meteohub,2013-08-18 02:33:00,
2013-08-17 19:38:00,75.4,59.5,29.99,East,90,12.0,16.0,58,0.00,,,0.00,meteohub,2013-08-18 02:38:00,
2013-08-17 19:43:00,74.7,59.9,30.00,NE,45,12.0,16.0,60,0.00,,,0.00,meteohub,2013-08-18 02:43:00,
2013-08-17 19:48:00,73.8,59.9,30.00,NE,45,14.0,15.0,62,0.04,,,0.04,meteohub,2013-08-18 02:48:00,
2013-08-17 19:53:00,72.9,59.9,30.00,NE,45,15.0,15.0,64,0.08,,,0.08,meteohub,2013-08-18 02:53:00,
2013-08-17 19:58:00,72.5,59.5,30.00,NE,45,11.0,15.0,64,0.08,,,0.08,meteohub,2013-08-18 02:58:00,
2013-08-17 20:03:00,71.8,59.7,30.00,NE,45,11.0,15.0,66,0.08,,,0.08,meteohub,2013-08-18 03:03:00,
2013-08-17 20:08:00,71.1,59.9,30.00,East,90,11.0,15.0,68,0.20,,,0.20,meteohub,2013-08-18 03:08:00,
2013-08-17 20:13:00,70.9,60.3,30.01,East,90,12.0,13.0,69,0.20,,,0.20,meteohub,2013-08-18 03:13:00,
2013-08-17 20:18:00,70.3,59.7,30.01,East,90,11.0,12.0,69,0.20,,,0.20,meteohub,2013-08-18 03:18:00,
2013-08-17 20:23:00,70.3,59.7,30.01,East,90,11.0,15.0,69,0.20,,,0.20,meteohub,2013-08-18 03:23:00,
2013-08-17 20:28:00,70.3,59.7,30.01,NE,45,11.0,15.0,69,0.20,,,0.20,meteohub,2013-08-18 03:28:00,
2013-08-17 20:33:00,69.6,59.7,30.01,East,90,7.0,15.0,71,0.20,,,0.20,meteohub,2013-08-18 03:33:00,
2013-08-17 20:38:00,69.3,59.9,30.01,NE,45,7.0,11.0,72,0.20,,,0.20,meteohub,2013-08-18 03:38:00,
2013-08-17 20:43:00,69.1,60.1,30.01,NE,45,5.0,11.0,73,0.20,,,0.20,meteohub,2013-08-18 03:43:00,
2013-08-17 20:48:00,68.9,59.9,30.02,NE,45,4.0,10.0,73,0.12,,,0.20,meteohub,2013-08-18 03:48:00,
2013-08-17 20:53:00,68.7,60.1,30.02,NE,45,4.0,8.0,74,0.12,,,0.20,meteohub,2013-08-18 03:53:00,
2013-08-17 20:58:00,68.7,60.1,30.02,NE,45,2.0,7.0,74,0.12,,,0.20,meteohub,2013-08-18 03:58:00,
2013-08-17 21:01:00,68.5,59.9,30.02,NE,45,0.0,5.0,74,0.00,,,0.20,meteohub,2013-08-18 04:01:00,
2013-08-17 21:02:00,68.5,59.9,30.02,North,0,2.0,5.0,74,0.00,,,0.20,meteohub,2013-08-18 04:02:00,
2013-08-17 21:07:00,68.7,60.1,30.02,North,0,2.0,4.0,74,0.00,,,0.20,meteohub,2013-08-18 04:07:00,
2013-08-17 21:12:00,68.7,60.1,30.02,NW,315,2.0,3.0,74,0.00,,,0.20,meteohub,2013-08-18 04:12:00,
2013-08-17 21:17:00,68.5,59.9,30.03,West,270,3.0,3.0,74,0.00,,,0.20,meteohub,2013-08-18 04:17:00,
2013-08-17 21:22:00,68.2,59.9,30.03,SW,225,2.0,3.0,75,0.00,,,0.20,meteohub,2013-08-18 04:22:00,
2013-08-17 21:27:00,67.6,59.7,30.03,SW,225,3.0,3.0,76,0.00,,,0.20,meteohub,2013-08-18 04:27:00,
2013-08-17 21:32:00,67.5,59.5,30.03,West,270,4.0,4.0,76,0.00,,,0.20,meteohub,2013-08-18 04:32:00,
2013-08-17 21:37:00,67.3,59.5,30.03,West,270,3.0,4.0,76,0.00,,,0.20,meteohub,2013-08-18 04:37:00,
2013-08-17 21:42:00,67.3,59.5,30.04,West,270,3.0,4.0,76,0.00,,,0.20,meteohub,2013-08-18 04:42:00,
2013-08-17 21:47:00,67.1,59.7,30.04,North,0,3.0,4.0,77,0.00,,,0.20,meteohub,2013-08-18 04:47:00,
2013-08-17 21:52:00,66.7,59.7,30.04,SW,225,2.0,3.0,78,0.00,,,0.20,meteohub,2013-08-18 04:52:00,
2013-08-17 21:57:00,66.4,59.7,30.04,SW,225,2.0,3.0,79,0.00,,,0.20,meteohub,2013-08-18 04:57:00,
2013-08-17 22:02:00,66.2,59.5,30.04,West,270,2.0,3.0,79,0.00,,,0.20,meteohub,2013-08-18 05:02:00,
2013-08-17 22:07:00,65.8,59.2,30.04,West,270,3.0,3.0,79,0.00,,,0.20,meteohub,2013-08-18 05:07:00,
2013-08-17 22:12:00,65.7,59.0,30.04,West,270,2.0,3.0,79,0.00,,,0.20,meteohub,2013-08-18 05:12:00,
2013-08-17 22:17:00,65.5,58.8,30.04,West,270,2.0,3.0,79,0.00,,,0.20,meteohub,2013-08-18 05:17:00,
2013-08-17 22:22:00,65.3,59.4,30.04,West,270,3.0,3.0,81,0.00,,,0.20,meteohub,2013-08-18 05:22:00,
2013-08-17 22:27:00,65.1,59.2,30.04,West,270,2.0,3.0,81,0.00,,,0.20,meteohub,2013-08-18 05:27:00,
2013-08-17 22:32:00,65.1,59.2,30.04,SW,225,2.0,3.0,81,0.00,,,0.20,meteohub,2013-08-18 05:32:00,
2013-08-17 22:37:00,64.8,59.2,30.04,SW,225,2.0,3.0,82,0.00,,,0.20,meteohub,2013-08-18 05:37:00,
2013-08-17 22:42:00,64.6,59.4,30.04,SW,225,2.0,3.0,83,0.00,,,0.20,meteohub,2013-08-18 05:42:00,
2013-08-17 22:47:00,64.6,59.4,30.04,SW,225,2.0,2.0,83,0.00,,,0.20,meteohub,2013-08-18 05:47:00,
2013-08-17 22:52:00,64.6,59.4,30.04,SW,225,2.0,3.0,83,0.00,,,0.20,meteohub,2013-08-18 05:52:00,
2013-08-17 22:57:00,64.6,59.7,30.04,West,270,3.0,3.0,84,0.00,,,0.20,meteohub,2013-08-18 05:57:00,
2013-08-17 23:02:00,64.6,59.4,30.04,West,270,3.0,3.0,83,0.00,,,0.20,meteohub,2013-08-18 06:02:00,
2013-08-17 23:07:00,64.4,59.2,30.04,South,180,2.0,4.0,83,0.00,,,0.20,meteohub,2013-08-18 06:07:00,
2013-08-17 23:12:00,64.0,59.2,30.04,South,180,2.0,4.0,84,0.00,,,0.20,meteohub,2013-08-18 06:12:00,
2013-08-17 23:17:00,63.9,58.6,30.04,SE,135,2.0,4.0,83,0.00,,,0.20,meteohub,2013-08-18 06:17:00,
2013-08-17 23:22:00,63.5,58.6,30.05,SE,135,2.0,4.0,84,0.00,,,0.20,meteohub,2013-08-18 06:22:00,
2013-08-17 23:27:00,63.3,58.5,30.05,South,180,0.0,4.0,84,0.00,,,0.20,meteohub,2013-08-18 06:27:00,
2013-08-17 23:32:00,63.1,58.3,30.04,SW,225,1.0,2.0,84,0.00,,,0.20,meteohub,2013-08-18 06:32:00,
2013-08-17 23:37:00,63.0,58.5,30.05,NW,315,1.0,2.0,85,0.00,,,0.20,meteohub,2013-08-18 06:37:00,
2013-08-17 23:42:00,62.8,58.5,30.04,NW,315,2.0,3.0,86,0.00,,,0.20,meteohub,2013-08-18 06:42:00,
2013-08-17 23:47:00,62.6,58.1,30.05,North,0,3.0,3.0,85,0.00,,,0.20,meteohub,2013-08-18 06:47:00,
2013-08-17 23:52:00,61.7,57.2,30.05,NE,45,2.0,3.0,85,0.00,,,0.20,meteohub,2013-08-18 06:52:00,
2013-08-17 23:57:00,61.0,57.0,30.05,SE,135,2.0,3.0,87,0.00,,,0.20,meteohub,2013-08-18 06:57:00,